ADDS METAR Data INFO
IDs: Format: Raw Decoded Include TAF

Data at: 1413 UTC 12 Dec 2017

KRPJ 121355Z AUTO 32007KT 10SM CLR M10/M14 A3013 RMK AO2 T11041142
KRPJ 121335Z AUTO 32008KT 10SM CLR M11/M14 A3013 RMK AO2 T11061145
KRPJ 121315Z AUTO 32009KT 10SM CLR M10/M14 A3012 RMK AO2 T11021142
KRPJ 121255Z AUTO 32012KT 10SM CLR M10/M14 A3011 RMK AO2 T11001140
KRPJ 121235Z AUTO 33013KT 10SM CLR M10/M14 A3011 RMK AO2 T10971136
KRPJ 121215Z AUTO 33012G16KT 10SM SCT026 M09/M13 A3011 RMK AO2 T10951133
KRPJ 121155Z AUTO 32011KT 10SM SCT026 M09/M13 A3010 RMK AO2 T10951128 11011 21096
KRPJ 121135Z AUTO 32007KT 10SM CLR M09/M13 A3010 RMK AO2 T10921130
KRPJ 121115Z AUTO 32010KT 10SM SCT028 M09/M13 A3009 RMK AO2 T10871129
KRPJ 121055Z AUTO 32008KT 10SM SCT028 M09/M13 A3009 RMK AO2 T10891127
KRPJ 121035Z AUTO 32009KT 10SM CLR M08/M13 A3008 RMK AO2 T10851126
KRPJ 121015Z AUTO 32010KT 10SM SCT028 M08/M12 A3008 RMK AO2 T10801123
KRPJ 120955Z AUTO 32007KT 10SM BKN028 M08/M12 A3007 RMK AO2 T10811124
KRPJ 120935Z AUTO 34011KT 10SM CLR M07/M12 A3007 RMK AO2 T10751121
KRPJ 120915Z AUTO 34014KT 10SM CLR M07/M12 A3006 RMK AO2 T10681120
KRPJ 120855Z AUTO 34018G22KT 10SM CLR M06/M12 A3006 RMK AO2 T10651117
KRPJ 120835Z AUTO 33012G17KT 10SM CLR M06/M11 A3005 RMK AO2 T10641115
KRPJ 120815Z AUTO 33014KT 10SM SCT035 M06/M11 A3005 RMK AO2 T10601112
KRPJ 120755Z AUTO 33014G20KT 10SM SCT035 M06/M11 A3004 RMK AO2 T10571110
KRPJ 120735Z AUTO 33015G19KT 10SM CLR M05/M10 A3003 RMK AO2 T10541105
KRPJ 120715Z AUTO 33015G21KT 10SM CLR M05/M10 A3002 RMK AO2 T10471100
KRPJ 120655Z AUTO 34017G22KT 10SM BKN041 M04/M09 A3001 RMK AO2 T10391094
KRPJ 120635Z AUTO 34018G24KT 10SM SCT035 OVC041 M03/M08 A2999 RMK AO2 T10281078
KRPJ 120615Z AUTO 34021G28KT 10SM SCT029 OVC034 M02/M07 A2998 RMK AO2 T10191069
KRPJ 120555Z AUTO 33007KT 10SM BKN031 OVC037 M01/M05 A2997 RMK AO2 T10111048 10000 21011 400381100
KRPJ 120535Z AUTO 32010G16KT 10SM OVC037 M01/M05 A2996 RMK AO2 T10101051
KRPJ 120515Z AUTO 33010KT 10SM OVC035 M01/M05 A2995 RMK AO2 T10101052
KRPJ 120455Z AUTO 34013G21KT 10SM SCT026 OVC033 M01/M05 A2995 RMK AO2 T10101052
KRPJ 120435Z AUTO 34014G18KT 10SM BKN026 OVC033 M01/M05 A2994 RMK AO2 T10091046
KRPJ 120415Z AUTO 34015G19KT 10SM OVC024 M01/M04 A2993 RMK AO2 T10061040
KRPJ 120355Z AUTO 34017G22KT 10SM OVC024 00/M04 A2993 RMK AO2 T10051036
KRPJ 120335Z AUTO 35020G24KT 10SM OVC020 00/M03 A2992 RMK AO2 T10021029
KRPJ 120315Z AUTO 34019G24KT 10SM OVC018 00/M02 A2991 RMK AO2 T00001020
KRPJ 120255Z AUTO 32011KT 7SM OVC016 00/M02 A2989 RMK AO2 T10011016
KRPJ 120235Z AUTO 32009KT 7SM OVC016 00/M02 A2989 RMK AO2 T10011018
KRPJ 120215Z AUTO 32010KT 10SM OVC018 00/M02 A2988 RMK AO2 T10011017
KRPJ 120155Z AUTO 33011G16KT 10SM OVC018 00/M02 A2986 RMK AO2 T10011016
KRPJ 120135Z AUTO 33011KT 10SM OVC018 00/M02 A2984 RMK AO2 T10011016
KRPJ 120115Z AUTO 32009KT 10SM BKN018 OVC029 00/M01 A2983 RMK AO2 T00001012
KRPJ 120055Z AUTO 31007KT 5SM BR SCT020 OVC029 00/M01 A2982 RMK AO2 T10011006
KRPJ 120035Z AUTO 31003KT 5SM BR OVC029 00/M01 A2981 RMK AO2 T10021007
KRPJ 120015Z AUTO 30004KT 5SM BR SCT029 OVC047 00/M01 A2980 RMK AO2 T10021007
KRPJ 112355Z AUTO 33004KT 5SM BR SCT038 OVC047 00/M01 A2979 RMK AO2 T10021007 10038 21002
KRPJ 112335Z AUTO 34005KT 4SM -SN SCT005 SCT018 OVC038 00/00 A2979 RMK AO2 T10011004
KRPJ 112315Z AUTO 34004KT 1 1/2SM -SN OVC005 00/00 A2978 RMK AO2 T00001001
KRPJ 112255Z AUTO 32005KT 3/4SM SN OVC006 00/00 A2977 RMK AO2 T00001001
KRPJ 112235Z AUTO 33008KT 1SM SN OVC005 00/00 A2977 RMK AO2 T00001002
KRPJ 112215Z AUTO 34010G18KT 3/4SM -SN BKN005 OVC010 00/00 A2975 RMK AO2 T00021003
KRPJ 112155Z AUTO 35007KT 10SM OVC030 03/M03 A2972 RMK AO2 T00261026
KRPJ 112135Z AUTO 01005KT 10SM BKN032 OVC065 03/M03 A2971 RMK AO2 T00301026
KRPJ 112115Z AUTO 01004KT 10SM SCT034 BKN065 BKN100 03/M03 A2970 RMK AO2 T00281026
KRPJ 112055Z AUTO 00000KT 10SM SCT065 BKN110 03/M02 A2969 RMK AO2 T00311025
KRPJ 112035Z AUTO 00000KT 10SM CLR 03/M02 A2968 RMK AO2 T00321025
KRPJ 112015Z AUTO 00000KT 10SM CLR 04/M02 A2968 RMK AO2 T00351025
KRPJ 111955Z AUTO 00000KT 10SM SCT110 04/M02 A2967 RMK AO2 T00351025
KRPJ 111935Z AUTO 09006KT 10SM SCT110 03/M03 A2966 RMK AO2 T00321026
KRPJ 111915Z AUTO 11007KT 10SM CLR 03/M03 A2966 RMK AO2 T00331027
KRPJ 111835Z AUTO 13007KT 10SM CLR 04/M03 A2967 RMK AO2 T00351026
KRPJ 111815Z AUTO 13008KT 10SM CLR 04/M03 A2968 RMK AO2 T00371026
KRPJ 111755Z AUTO 14009KT 10SM SCT110 03/M03 A2970 RMK AO2 T00331027 10033 21035
KRPJ 111735Z AUTO 14008KT 10SM SCT110 03/M03 A2972 RMK AO2 T00251029
KRPJ 111715Z AUTO 16013KT 10SM SCT110 03/M03 A2972 RMK AO2 T00291029
KRPJ 111655Z AUTO 15010KT 10SM SCT120 02/M03 A2974 RMK AO2 T00191030
KRPJ 111635Z AUTO 15012KT 10SM SCT120 01/M03 A2977 RMK AO2 T00101034
KRPJ 111615Z AUTO 17011KT 10SM BKN110 00/M03 A2979 RMK AO2 T00031035
KRPJ 111555Z AUTO 15014KT 10SM OVC110 00/M04 A2980 RMK AO2 T00011036
KRPJ 111535Z AUTO 15012KT 10SM OVC110 00/M04 A2980 RMK AO2 T10051041
KRPJ 111515Z AUTO 15012KT 10SM OVC110 M01/M04 A2981 RMK AO2 T10101043
KRPJ 111455Z AUTO 15012KT 10SM BKN120 M02/M05 A2983 RMK AO2 T10161046
KRPJ 111435Z AUTO 16012KT 10SM SCT120 M02/M05 A2986 RMK AO2 T10201047
KRPJ 111420Z AUTO 16010KT 7SM SCT120 M02/M05 A2987 RMK AO2 T10231048
KRPJ 111355Z AUTO 16009KT 10SM CLR M03/M05 A2988 RMK AO2 T10311053
KRPJ 111335Z AUTO 15009KT 7SM CLR M03/M05 A2990 RMK AO2 T10311053
KRPJ 111315Z AUTO 16009KT 10SM SCT120 M03/M05 A2992 RMK AO2 T10321055
KRPJ 111255Z AUTO 16009KT 10SM SCT060 BKN120 M03/M05 A2993 RMK AO2 T10301055
KRPJ 111235Z AUTO 16008KT 10SM BKN060 BKN120 M03/M05 A2994 RMK AO2 T10301055
KRPJ 111215Z AUTO 15005KT 10SM BKN075 OVC085 M03/M05 A2995 RMK AO2 T10321055
KRPJ 111155Z AUTO 15005KT 10SM OVC080 M03/M06 A2996 RMK AO2 T10351056 11035 21100
KRPJ 111140Z AUTO 15004KT 10SM BKN090 OVC110 M04/M06 A2996 RMK AO2 T10361058
KRPJ 111115Z AUTO 14005KT 10SM OVC100 M04/M06 A2996 RMK AO2 T10371060
KRPJ 111055Z AUTO 14004KT 10SM OVC100 M04/M06 A2998 RMK AO2 T10371060
KRPJ 111035Z AUTO 16004KT 10SM SCT065 OVC090 M04/M06 A2999 RMK AO2 T10401063
KRPJ 111015Z AUTO 19003KT 10SM SCT065 OVC090 M04/M06 A3000 RMK AO2 T10411065
KRPJ 110955Z AUTO 20005KT 10SM OVC090 M04/M07 A3001 RMK AO2 T10451067
KRPJ 110935Z AUTO 20003KT 10SM OVC090 M05/M07 A3001 RMK AO2 T10511071
KRPJ 110915Z AUTO 19005KT 10SM OVC090 M05/M07 A3001 RMK AO2 T10521070
KRPJ 110855Z AUTO 00000KT 10SM OVC090 M06/M08 A3001 RMK AO2 T10601078
KRPJ 110835Z AUTO 21003KT 10SM BKN090 BKN120 M06/M08 A3003 RMK AO2 T10651083
KRPJ 110815Z AUTO 19003KT 10SM BKN090 BKN120 M07/M09 A3003 RMK AO2 T10751090
KRPJ 110755Z AUTO 13006KT 10SM BKN090 M09/M10 A3002 RMK AO2 T10871102
KRPJ 110735Z AUTO 14004KT 10SM CLR M09/M11 A3004 RMK AO2 T10931106
KRPJ 110715Z AUTO 14004KT 10SM CLR M09/M11 A3005 RMK AO2 T10921106
KRPJ 110700Z AUTO 00000KT 10SM CLR M10/M11 A3006 RMK AO2 T10961110
KRPJ 110635Z AUTO 00000KT 10SM CLR M10/M11 A3006 RMK AO2 T10971111
KRPJ 110615Z AUTO 00000KT 10SM CLR M10/M11 A3006 RMK AO2 T10981115
KRPJ 110555Z AUTO 00000KT 10SM CLR M10/M11 A3007 RMK AO2 T10961111 11010 21098 400121098
KRPJ 110535Z AUTO 00000KT 10SM CLR M08/M10 A3008 RMK AO2 T10801097
KRPJ 110515Z AUTO 00000KT 10SM CLR M08/M10 A3008 RMK AO2 T10851103
KRPJ 110455Z AUTO 00000KT 10SM CLR M08/M10 A3009 RMK AO2 T10811100
KRPJ 110435Z AUTO 00000KT 10SM CLR M07/M09 A3009 RMK AO2 T10751093
KRPJ 110415Z AUTO 27003KT 10SM CLR M06/M08 A3009 RMK AO2 T10581081
KRPJ 110355Z AUTO 30004KT 10SM CLR M05/M08 A3009 RMK AO2 T10551079
KRPJ 110335Z AUTO 29005KT 10SM CLR M05/M08 A3009 RMK AO2 T10511080
KRPJ 110315Z AUTO 30003KT 10SM CLR M04/M07 A3009 RMK AO2 T10401072
KRPJ 110255Z AUTO 31004KT 10SM CLR M04/M07 A3009 RMK AO2 T10361069
KRPJ 110235Z AUTO 31004KT 10SM SCT023 M03/M07 A3009 RMK AO2 T10311067
KRPJ 110220Z AUTO 31005KT 10SM BKN023 M03/M07 A3008 RMK AO2 T10281066